Overview Statistics Trail Chart Weather Telemetry Raw packets
 

This is the latest recevied weather packets stored in our database for station/object CT4TX-11. If no packets are shown the sender has not sent any weather packets the latest 10 day(s).

<< 9 10 11 12 13 14 15 >>
Time Temp. Humidity Pressure Rain* Wind** Luminosity Snow
1788383177 30° C 43% 1008.3 hPa - - - -
1788382277 30° C 43% 1008.2 hPa - - - -
1788381377 30.56° C 43% 1008.1 hPa - - - -
1788380476 30.56° C 43% 1007.9 hPa - - - -
1788379576 30.56° C 44% 1007.8 hPa - - - -
1788378676 31.11° C 43% 1007.7 hPa - - - -
1788377776 31.11° C 44% 1007.5 hPa - - - -
1788376875 31.11° C 44% 1007.3 hPa - - - -
1788375975 32.22° C 42% 1007.3 hPa - - - -
1788375075 31.67° C 43% 1006.7 hPa - - - -
1788374175 32.22° C 43% 1007.2 hPa - - - -
1788373274 31.67° C 46% 1007.2 hPa - - - -
1788372374 31.67° C 46% 1007.2 hPa - - - -
1788371474 32.78° C 45% 1007.2 hPa - - - -
1788370574 32.22° C 44% 1007.3 hPa - - - -
1788369674 32.22° C 44% 1007.3 hPa - - - -
1788368773 32.22° C 44% 1006.8 hPa - - - -
1788367873 31.67° C 47% 1007.1 hPa - - - -
1788366972 31.67° C 46% 1007.1 hPa - - - -
1788366080 32.78° C 44% 1007.1 hPa - - - -
1788365171 32.78° C 44% 1007.1 hPa - - - -
1788364277 31.67° C 46% 1007.1 hPa - - - -
1788363376 32.22° C 44% 1007.1 hPa - - - -
1788362476 31.67° C 45% 1007 hPa - - - -
1788361576 31.67° C 44% 1007 hPa - - - -

* Rain since midnight (hover to see other rain measurements)
** Current wind speed in m/s (hover to see current wind gust speed)